Time;durP1;ratioP1;P1;durP2;ratioP2;P2;SDS_P1;SDS_P2;PMS_P1;PMS_P2;Temp;Humidity;BMP_temperature;BMP_pressure;BME280_temperature;BME280_humidity;BME280_pressure;Samples;Min_cycle;Max_cycle;Signal;HPM_P1;HPM_P2
2022/04/24 00:02:22;;;;;;;7.93;7.13;;;9.80;99.90;;;;;;5063957;28;20037;-81
2022/04/24 00:04:48;;;;;;;8.50;6.80;;;9.70;99.90;;;;;;5044369;28;20030;-81
2022/04/24 00:07:13;;;;;;;7.97;7.18;;;9.70;99.90;;;;;;5049369;28;20088;-81
2022/04/24 00:09:39;;;;;;;8.98;7.35;;;9.70;99.90;;;;;;5028740;28;20354;-81
2022/04/24 00:12:06;;;;;;;8.20;7.40;;;9.60;99.90;;;;;;5066894;28;20533;-81
2022/04/24 00:14:32;;;;;;;8.93;7.07;;;9.60;99.90;;;;;;5049524;28;20764;-81
2022/04/24 00:16:58;;;;;;;9.25;7.97;;;9.60;99.90;;;;;;5034333;28;20045;-81
2022/04/24 00:19:24;;;;;;;8.05;7.25;;;9.50;99.90;;;;;;5053495;28;20536;-81
2022/04/24 00:21:50;;;;;;;7.68;6.97;;;9.50;99.90;;;;;;5053615;28;20131;-81
2022/04/24 00:24:15;;;;;;;10.55;7.88;;;9.40;99.90;;;;;;5050949;28;20041;-81
2022/04/24 00:26:41;;;;;;;9.20;7.50;;;9.40;99.90;;;;;;5037511;28;20120;-81
2022/04/24 00:29:07;;;;;;;8.40;7.18;;;9.40;99.90;;;;;;5052735;28;20091;-81
2022/04/24 00:31:33;;;;;;;9.20;7.38;;;9.30;99.90;;;;;;5041865;28;20052;-81
2022/04/24 00:33:58;;;;;;;7.93;7.22;;;9.20;99.90;;;;;;5052869;28;20117;-81
2022/04/24 00:36:24;;;;;;;8.23;7.40;;;9.20;99.90;;;;;;5035884;28;20049;-81
2022/04/24 00:38:50;;;;;;;9.32;7.22;;;9.20;99.90;;;;;;5051297;28;20397;-81
2022/04/24 00:41:15;;;;;;;8.85;7.32;;;9.20;99.90;;;;;;5047648;28;20039;-81
2022/04/24 00:43:41;;;;;;;8.10;7.30;;;9.20;99.90;;;;;;5052121;28;20025;-81
2022/04/24 00:46:18;;;;;;;7.97;7.07;;;9.10;99.90;;;;;;5047823;28;20120;-81
2022/04/24 00:48:44;;;;;;;7.47;6.78;;;9.10;99.90;;;;;;5034967;28;20536;-81
2022/04/24 00:51:11;;;;;;;7.70;7.00;;;9.20;99.90;;;;;;5056598;28;20047;-82
2022/04/24 00:53:37;;;;;;;8.30;7.50;;;9.10;99.90;;;;;;5056407;28;20589;-81
2022/04/24 00:56:03;;;;;;;7.70;6.90;;;9.20;99.90;;;;;;5051414;28;20087;-81
2022/04/24 00:58:30;;;;;;;7.82;7.13;;;9.10;99.90;;;;;;5051329;28;20063;-81
2022/04/24 01:00:56;;;;;;;8.25;7.45;;;9.00;99.90;;;;;;5050270;28;20045;-81
2022/04/24 01:03:22;;;;;;;8.18;7.38;;;9.00;99.90;;;;;;5024188;28;20058;-81
2022/04/24 01:05:48;;;;;;;7.93;7.22;;;9.00;99.90;;;;;;5052048;28;20029;-81
2022/04/24 01:08:14;;;;;;;8.43;7.63;;;9.00;99.90;;;;;;5035397;28;20068;-81
2022/04/24 01:10:40;;;;;;;8.75;7.80;;;9.00;99.90;;;;;;5054717;28;20333;-81
2022/04/24 01:13:06;;;;;;;8.35;7.57;;;9.00;99.90;;;;;;5051573;28;20045;-81
2022/04/24 01:15:33;;;;;;;8.60;6.85;;;9.10;99.90;;;;;;5051345;28;20395;-81
2022/04/24 01:17:59;;;;;;;9.35;7.60;;;9.00;99.90;;;;;;5052281;28;20510;-81
2022/04/24 01:20:25;;;;;;;8.27;7.40;;;9.00;99.90;;;;;;5032387;28;20041;-81
2022/04/24 01:22:50;;;;;;;7.75;6.93;;;8.90;99.90;;;;;;5051981;28;20708;-81
2022/04/24 01:25:16;;;;;;;8.05;7.32;;;8.90;99.90;;;;;;5050857;28;20082;-82
2022/04/24 01:27:42;;;;;;;8.95;7.95;;;8.90;99.90;;;;;;5051091;28;20044;-81
2022/04/24 01:30:08;;;;;;;8.20;7.40;;;8.90;99.90;;;;;;5035503;28;20489;-81
2022/04/24 01:32:34;;;;;;;8.38;7.47;;;8.80;99.90;;;;;;5052209;28;20140;-81
2022/04/24 01:35:00;;;;;;;7.85;7.05;;;8.80;99.90;;;;;;5019142;28;20128;-81
2022/04/24 01:37:26;;;;;;;8.38;7.57;;;8.80;99.90;;;;;;5036191;28;20529;-81
2022/04/24 01:39:55;;;;;;;8.75;7.85;;;8.70;99.90;;;;;;5038973;28;20040;-81
2022/04/24 01:42:21;;;;;;;8.57;7.35;;;8.60;99.90;;;;;;5052725;28;20068;-82
2022/04/24 01:44:47;;;;;;;8.63;7.68;;;8.60;99.90;;;;;;5052974;28;20451;-81
2022/04/24 01:47:12;;;;;;;8.65;7.85;;;8.60;99.90;;;;;;5052629;28;20032;-81
2022/04/24 01:49:38;;;;;;;7.97;7.18;;;8.60;99.90;;;;;;5052290;28;20490;-81
2022/04/24 01:52:07;;;;;;;8.85;7.95;;;8.40;99.90;;;;;;5052778;28;20373;-81
2022/04/24 01:54:33;;;;;;;8.70;7.80;;;8.30;99.90;;;;;;5039355;28;20115;-81
2022/04/24 01:56:58;;;;;;;8.38;7.10;;;8.30;99.90;;;;;;5039957;28;20120;-81
2022/04/24 01:59:24;;;;;;;8.95;8.05;;;8.20;99.90;;;;;;5051546;28;20092;-82
2022/04/24 02:01:50;;;;;;;8.18;7.40;;;8.20;99.90;;;;;;5052650;28;20045;-81
2022/04/24 02:04:18;;;;;;;9.75;8.13;;;8.20;99.90;;;;;;5052176;28;20475;-82
2022/04/24 02:06:44;;;;;;;9.15;8.25;;;8.10;99.90;;;;;;5052346;28;20049;-81
2022/04/24 02:09:10;;;;;;;9.02;7.90;;;8.00;99.90;;;;;;5064998;28;20076;-81
2022/04/24 02:11:35;;;;;;;9.82;8.82;;;7.90;99.90;;;;;;5048374;28;20037;-82
2022/04/24 02:14:01;;;;;;;9.02;8.13;;;7.90;99.90;;;;;;5049482;28;20443;-82
2022/04/24 02:16:27;;;;;;;9.10;8.30;;;7.90;99.90;;;;;;5035405;28;20402;-82
2022/04/24 02:18:52;;;;;;;9.88;7.80;;;7.80;99.90;;;;;;5048556;28;20052;-82
2022/04/24 02:21:18;;;;;;;9.43;8.52;;;7.80;99.90;;;;;;5061849;22;20064;-87
2022/04/24 02:23:44;;;;;;;9.15;8.23;;;7.70;99.90;;;;;;5054927;28;20041;-86
2022/04/24 02:26:09;;;;;;;8.55;7.65;;;7.70;99.90;;;;;;5054989;28;20036;-87
2022/04/24 02:28:35;;;;;;;9.65;8.57;;;7.60;99.90;;;;;;5055619;28;20045;-87
2022/04/24 02:31:00;;;;;;;9.18;8.27;;;7.50;99.90;;;;;;5056386;28;20047;-87
2022/04/24 02:33:26;;;;;;;8.80;7.90;;;7.40;99.90;;;;;;5052932;28;20401;-87
2022/04/24 02:35:51;;;;;;;9.23;8.32;;;7.50;99.90;;;;;;5038937;28;20087;-86
2022/04/24 02:38:17;;;;;;;10.73;9.32;;;7.40;99.90;;;;;;5038038;28;20044;-87
2022/04/24 02:40:43;;;;;;;9.00;8.20;;;7.40;99.90;;;;;;5047485;28;20087;-86
2022/04/24 02:43:08;;;;;;;11.32;8.70;;;7.40;99.90;;;;;;5055954;28;20090;-86
2022/04/24 02:45:34;;;;;;;9.52;8.63;;;7.40;99.90;;;;;;5057570;28;20232;-86
2022/04/24 02:47:59;;;;;;;10.45;9.50;;;7.30;99.90;;;;;;5039849;28;20054;-86
2022/04/24 02:50:26;;;;;;;9.48;8.57;;;7.20;99.90;;;;;;5029302;28;20048;-86
2022/04/24 02:52:53;;;;;;;10.15;9.15;;;7.30;99.90;;;;;;5055257;28;20036;-87
2022/04/24 02:55:20;;;;;;;11.02;10.02;;;7.20;99.90;;;;;;5056570;28;20496;-87
2022/04/24 02:57:47;;;;;;;10.20;9.30;;;7.10;99.90;;;;;;5043533;28;20507;-86
2022/04/24 03:00:19;;;;;;;9.68;8.77;;;7.10;99.90;;;;;;5053699;28;20041;-87
2022/04/24 03:02:45;;;;;;;11.50;9.52;;;7.20;99.90;;;;;;5050843;28;20040;-87
2022/04/24 03:05:24;;;;;;;9.70;8.80;;;7.20;99.90;;;;;;5059349;28;20456;-86
2022/04/24 03:07:50;;;;;;;10.18;9.18;;;7.10;99.90;;;;;;5058832;28;20555;-87
2022/04/24 03:10:17;;;;;;;10.00;9.00;;;7.10;99.90;;;;;;5039039;28;20047;-87
2022/04/24 03:12:43;;;;;;;12.57;9.63;;;7.10;99.90;;;;;;5056858;28;20040;-87
2022/04/24 03:15:10;;;;;;;11.20;10.10;;;7.00;99.90;;;;;;5070710;28;20503;-87
2022/04/24 03:17:36;;;;;;;10.23;9.25;;;7.00;99.90;;;;;;5052078;28;20102;-86
2022/04/24 03:20:03;;;;;;;10.68;9.65;;;7.00;99.90;;;;;;5055257;28;20044;-86
2022/04/24 03:22:30;;;;;;;10.05;9.07;;;7.00;99.90;;;;;;5058516;28;20048;-87
2022/04/24 03:24:57;;;;;;;10.80;9.70;;;7.00;99.90;;;;;;5068469;28;20037;-86
2022/04/24 03:27:23;;;;;;;10.75;9.50;;;6.90;99.90;;;;;;5043419;28;20098;-87
2022/04/24 03:29:49;;;;;;;10.88;9.77;;;6.90;99.90;;;;;;5043154;28;20037;-86
2022/04/24 03:32:14;;;;;;;10.68;9.68;;;6.90;99.90;;;;;;5059925;28;20044;-86
2022/04/24 03:34:40;;;;;;;9.60;8.63;;;6.90;99.90;;;;;;5040213;28;20124;-86
2022/04/24 03:37:05;;;;;;;10.23;9.23;;;6.90;99.90;;;;;;5069525;28;20040;-86
2022/04/24 03:39:31;;;;;;;11.93;9.95;;;6.90;99.90;;;;;;5038703;28;20123;-87
2022/04/24 03:41:57;;;;;;;10.65;9.18;;;6.90;99.90;;;;;;5057571;28;20481;-86
2022/04/24 03:44:22;;;;;;;10.80;9.70;;;6.80;99.90;;;;;;5055754;28;20044;-86
2022/04/24 03:46:48;;;;;;;10.45;9.35;;;6.80;99.90;;;;;;5051075;28;20398;-86
2022/04/24 03:49:14;;;;;;;9.95;8.95;;;6.80;99.90;;;;;;5043366;28;20159;-86
2022/04/24 03:51:39;;;;;;;9.93;8.93;;;6.80;99.90;;;;;;5053160;28;20041;-86
2022/04/24 03:54:05;;;;;;;10.43;9.35;;;6.80;99.90;;;;;;5035072;28;20549;-86
2022/04/24 03:56:31;;;;;;;10.68;9.48;;;6.80;99.90;;;;;;5035574;28;20033;-86
2022/04/24 03:59:00;;;;;;;11.18;9.98;;;6.80;99.90;;;;;;5035286;28;20045;-86
2022/04/24 04:01:26;;;;;;;10.90;8.88;;;6.80;99.90;;;;;;5063819;28;20041;-87
2022/04/24 04:03:52;;;;;;;10.75;9.68;;;6.80;99.90;;;;;;5038198;28;20466;-86
2022/04/24 04:06:19;;;;;;;11.40;10.18;;;6.80;99.90;;;;;;5072661;28;20036;-86
2022/04/24 04:08:44;;;;;;;11.50;9.70;;;6.80;99.90;;;;;;5064178;28;20823;-86
2022/04/24 04:11:10;;;;;;;10.57;9.48;;;6.90;99.90;;;;;;5053114;28;20041;-86
2022/04/24 04:13:36;;;;;;;9.90;8.88;;;6.90;99.90;;;;;;5034988;28;20047;-86
2022/04/24 04:16:01;;;;;;;10.50;9.50;;;6.90;99.90;;;;;;5018630;28;20041;-87
2022/04/24 04:18:27;;;;;;;10.35;9.43;;;6.90;99.90;;;;;;5039203;28;20033;-87
2022/04/24 04:20:53;;;;;;;10.57;9.55;;;6.80;99.90;;;;;;5071250;28;20045;-86
2022/04/24 04:23:18;;;;;;;11.13;8.77;;;6.80;99.90;;;;;;5068438;28;20099;-85
2022/04/24 04:25:44;;;;;;;12.38;10.00;;;6.80;99.90;;;;;;5034845;28;20102;-86
2022/04/24 04:28:10;;;;;;;13.90;9.73;;;6.80;99.90;;;;;;5037020;28;20063;-86
2022/04/24 04:30:35;;;;;;;12.20;9.18;;;6.80;99.90;;;;;;5036627;28;20113;-86
2022/04/24 04:33:01;;;;;;;11.32;8.95;;;6.80;99.90;;;;;;5053055;28;20039;-86
2022/04/24 04:35:27;;;;;;;10.38;8.80;;;6.80;99.90;;;;;;5050828;28;20075;-86
2022/04/24 04:37:52;;;;;;;12.20;9.13;;;6.80;99.90;;;;;;5052832;28;20545;-86
2022/04/24 04:40:20;;;;;;;11.52;9.30;;;6.80;99.90;;;;;;5069007;28;20032;-86
2022/04/24 04:42:47;;;;;;;9.90;8.85;;;6.80;99.90;;;;;;5068969;28;20048;-86
2022/04/24 04:45:14;;;;;;;12.93;9.30;;;6.90;99.90;;;;;;5065708;28;20033;-85
2022/04/24 04:47:39;;;;;;;10.10;9.10;;;6.80;99.90;;;;;;5051645;28;20029;-86
2022/04/24 04:50:05;;;;;;;10.45;9.13;;;6.90;99.90;;;;;;5037267;28;20387;-86
2022/04/24 04:52:32;;;;;;;12.27;9.63;;;6.90;99.90;;;;;;5036286;28;20111;-86
2022/04/24 04:54:58;;;;;;;9.82;8.60;;;6.90;99.90;;;;;;5026607;28;20041;-86
2022/04/24 04:57:24;;;;;;;11.25;8.93;;;6.90;99.90;;;;;;5053357;28;20040;-87
2022/04/24 04:59:50;;;;;;;10.43;9.20;;;6.90;99.90;;;;;;5042324;28;20159;-86
2022/04/24 05:02:15;;;;;;;9.52;8.52;;;7.00;99.90;;;;;;5035801;28;20075;-87
2022/04/24 05:04:43;;;;;;;9.65;8.65;;;7.00;99.90;;;;;;5038904;28;20040;-86
2022/04/24 05:07:12;;;;;;;10.77;8.70;;;7.10;99.90;;;;;;5075384;28;20091;-86
2022/04/24 05:09:38;;;;;;;9.25;8.32;;;7.20;99.90;;;;;;5075315;28;20119;-86
2022/04/24 05:12:05;;;;;;;9.13;8.23;;;7.20;99.90;;;;;;5055262;28;20486;-86
2022/04/24 05:14:31;;;;;;;11.13;8.20;;;7.20;99.90;;;;;;5037494;28;20037;-87
2022/04/24 05:16:57;;;;;;;9.70;7.75;;;7.30;99.90;;;;;;5046378;28;20478;-86
2022/04/24 05:19:24;;;;;;;12.60;8.35;;;7.40;99.90;;;;;;5056936;28;20044;-87
2022/04/24 05:21:50;;;;;;;15.80;8.98;;;7.60;99.90;;;;;;5037800;28;20048;-86
2022/04/24 05:24:15;;;;;;;13.25;8.93;;;7.70;99.90;;;;;;5039113;28;20551;-86
2022/04/24 05:26:41;;;;;;;9.75;8.75;;;7.70;99.90;;;;;;5029666;28;20048;-87
2022/04/24 05:29:07;;;;;;;11.50;9.38;;;7.90;99.90;;;;;;5073973;28;20032;-86
2022/04/24 05:31:33;;;;;;;10.43;8.52;;;7.90;99.90;;;;;;5054515;28;20072;-86
2022/04/24 05:33:58;;;;;;;10.50;8.90;;;8.10;99.90;;;;;;5040138;28;20047;-87
2022/04/24 05:36:25;;;;;;;10.10;8.95;;;8.30;99.90;;;;;;5038987;28;20040;-86
2022/04/24 05:38:50;;;;;;;11.63;9.35;;;8.30;99.90;;;;;;5050501;28;20036;-87
2022/04/24 05:41:16;;;;;;;11.73;9.25;;;8.40;99.90;;;;;;5073779;28;20043;-87
2022/04/24 05:43:41;;;;;;;12.55;8.20;;;8.70;99.90;;;;;;5037712;28;20068;-86
2022/04/24 05:46:07;;;;;;;9.30;8.13;;;9.20;99.90;;;;;;5072966;28;20812;-87
2022/04/24 05:48:33;;;;;;;9.10;8.13;;;10.20;99.90;;;;;;5039764;28;20028;-87
2022/04/24 05:50:59;;;;;;;10.77;8.60;;;11.10;99.90;;;;;;5055260;28;20122;-86
2022/04/24 05:53:24;;;;;;;13.32;8.60;;;11.70;99.90;;;;;;5056132;28;20131;-86
2022/04/24 05:55:50;;;;;;;9.57;8.32;;;12.30;99.90;;;;;;5024310;28;20101;-86
2022/04/24 05:58:16;;;;;;;9.65;7.72;;;13.20;99.90;;;;;;5020499;28;20084;-86
2022/04/24 06:00:41;;;;;;;9.75;7.80;;;13.90;98.90;;;;;;5024862;28;20040;-85
2022/04/24 06:03:07;;;;;;;10.27;7.40;;;14.50;97.00;;;;;;5074978;28;20112;-87
2022/04/24 06:05:33;;;;;;;9.40;7.85;;;15.00;96.20;;;;;;5039870;28;20037;-86
2022/04/24 06:07:58;;;;;;;8.98;8.05;;;15.00;95.40;;;;;;5039815;28;20059;-87
2022/04/24 06:10:24;;;;;;;10.25;7.88;;;15.30;94.20;;;;;;5055276;28;20091;-87
2022/04/24 06:12:55;;;;;;;8.75;7.85;;;14.40;94.50;;;;;;5038129;28;20067;-86
2022/04/24 06:15:27;;;;;;;10.10;8.40;;;14.70;94.70;;;;;;5063700;28;20094;-86
2022/04/24 06:17:54;;;;;;;10.45;8.00;;;14.20;94.40;;;;;;5033426;28;20048;-87
2022/04/24 06:20:22;;;;;;;8.85;7.35;;;14.10;93.40;;;;;;5039902;28;20041;-87
2022/04/24 06:22:56;;;;;;;9.23;8.23;;;14.30;94.30;;;;;;5035996;28;20075;-86
2022/04/24 06:25:24;;;;;;;8.73;7.90;;;13.40;94.80;;;;;;5055222;28;20374;-87
2022/04/24 06:27:50;;;;;;;8.77;7.95;;;12.90;95.70;;;;;;5039529;28;20033;-87
2022/04/24 06:30:18;;;;;;;9.77;7.95;;;11.70;97.80;;;;;;5039773;28;20074;-88
2022/04/24 06:32:44;;;;;;;9.05;8.00;;;11.50;98.00;;;;;;5074597;28;20089;-87
2022/04/24 06:35:13;;;;;;;8.98;7.75;;;11.40;99.50;;;;;;5039503;28;20047;-87
2022/04/24 06:37:40;;;;;;;7.82;7.10;;;11.30;99.60;;;;;;5056103;28;20180;-86
2022/04/24 06:40:07;;;;;;;8.30;7.43;;;11.20;99.90;;;;;;5053072;28;20052;-87
2022/04/24 06:42:33;;;;;;;7.93;6.97;;;11.10;99.90;;;;;;5042021;28;20123;-85
2022/04/24 06:44:59;;;;;;;7.65;6.90;;;11.10;99.90;;;;;;5052313;28;20044;-86
2022/04/24 06:47:27;;;;;;;8.00;7.05;;;11.10;99.90;;;;;;5025229;28;20052;-86
2022/04/24 06:49:53;;;;;;;8.43;7.38;;;10.90;99.90;;;;;;5057405;28;20086;-87
2022/04/24 06:52:19;;;;;;;7.60;6.82;;;11.30;99.90;;;;;;5056468;28;20032;-86
2022/04/24 06:54:45;;;;;;;9.38;6.63;;;11.20;99.90;;;;;;5039038;28;20053;-86
2022/04/24 06:57:10;;;;;;;8.90;6.18;;;11.30;99.90;;;;;;5036079;28;20478;-86
2022/04/24 06:59:36;;;;;;;7.45;5.97;;;11.30;99.90;;;;;;5046617;28;20405;-86
2022/04/24 07:02:02;;;;;;;9.60;6.22;;;11.70;99.90;;;;;;5031593;28;20048;-87
2022/04/24 07:04:27;;;;;;;8.93;6.03;;;11.90;99.90;;;;;;5050384;28;20032;-87
2022/04/24 07:06:53;;;;;;;7.45;4.90;;;12.10;99.10;;;;;;5055403;28;20409;-85
2022/04/24 07:09:18;;;;;;;7.60;5.10;;;12.60;98.30;;;;;;5055156;28;20041;-86
2022/04/24 07:11:44;;;;;;;5.15;4.65;;;12.90;97.30;;;;;;5050152;28;20036;-86
2022/04/24 07:14:09;;;;;;;5.68;4.63;;;13.00;97.00;;;;;;5041803;28;20047;-87
2022/04/24 07:16:35;;;;;;;6.10;4.10;;;12.90;97.30;;;;;;5044772;28;20040;-86
2022/04/24 07:19:01;;;;;;;4.97;4.05;;;12.80;97.40;;;;;;5021288;28;20090;-86
2022/04/24 07:21:27;;;;;;;5.28;4.30;;;12.40;97.80;;;;;;5048601;28;20052;-87
2022/04/24 07:23:52;;;;;;;5.60;3.85;;;12.40;97.70;;;;;;5037888;28;20047;-86
2022/04/24 07:26:18;;;;;;;6.97;3.45;;;12.90;97.40;;;;;;5058455;28;20093;-85
2022/04/24 07:28:43;;;;;;;4.72;3.47;;;14.30;95.80;;;;;;5053468;28;20044;-85
2022/04/24 07:31:09;;;;;;;5.40;3.75;;;15.50;93.60;;;;;;5036370;28;20041;-86
2022/04/24 07:33:35;;;;;;;5.20;3.35;;;16.30;92.30;;;;;;5046841;28;20116;-87
2022/04/24 07:36:00;;;;;;;3.25;2.90;;;16.70;90.40;;;;;;5041206;28;20037;-87
2022/04/24 07:38:26;;;;;;;4.13;3.30;;;16.60;88.40;;;;;;5045023;28;20045;-85
2022/04/24 07:40:51;;;;;;;4.07;2.65;;;16.00;89.40;;;;;;5029421;28;20037;-85
2022/04/24 07:43:17;;;;;;;5.35;3.28;;;15.50;88.50;;;;;;5036813;28;20120;-85
2022/04/24 07:45:48;;;;;;;3.47;2.90;;;15.40;90.10;;;;;;5049463;28;20036;-84
2022/04/24 07:48:15;;;;;;;4.97;2.50;;;15.50;89.90;;;;;;5037733;28;20044;-84
2022/04/24 07:50:46;;;;;;;3.10;2.50;;;15.70;88.90;;;;;;5034944;28;20105;-84
2022/04/24 07:53:13;;;;;;;5.57;3.03;;;15.50;89.10;;;;;;5049399;28;20040;-84
2022/04/24 07:55:43;;;;;;;4.07;3.05;;;15.30;89.50;;;;;;5038517;28;20075;-85
2022/04/24 07:58:09;;;;;;;4.72;2.60;;;15.30;90.10;;;;;;5052230;28;20382;-83
2022/04/24 08:00:35;;;;;;;5.05;2.78;;;15.20;87.40;;;;;;5050229;28;20106;-83
2022/04/24 08:03:09;;;;;;;3.00;2.63;;;15.30;90.20;;;;;;5041809;28;20032;-85
2022/04/24 08:05:36;;;;;;;3.72;2.55;;;15.20;90.30;;;;;;5050628;28;20036;-86
2022/04/24 08:08:04;;;;;;;4.65;2.53;;;15.20;88.60;;;;;;5038394;28;20044;-82
2022/04/24 08:10:32;;;;;;;5.45;2.67;;;15.10;89.10;;;;;;5049883;28;20047;-82
2022/04/24 08:12:59;;;;;;;5.65;2.88;;;15.00;90.30;;;;;;5054338;28;20045;-83
2022/04/24 08:15:25;;;;;;;4.10;2.22;;;14.80;90.70;;;;;;5036886;28;20128;-83
2022/04/24 08:17:50;;;;;;;3.35;2.70;;;14.80;90.00;;;;;;5047575;28;20541;-83
2022/04/24 08:20:17;;;;;;;6.10;3.30;;;14.80;90.40;;;;;;5028225;28;20085;-85
2022/04/24 08:22:45;;;;;;;5.35;2.80;;;14.80;90.40;;;;;;5067711;28;20049;-84
2022/04/24 08:25:12;;;;;;;4.20;2.65;;;14.90;90.80;;;;;;5051822;28;20051;-84
2022/04/24 08:27:39;;;;;;;3.97;2.80;;;14.80;90.90;;;;;;5049355;28;20047;-84
2022/04/24 08:30:06;;;;;;;3.38;2.70;;;14.80;90.50;;;;;;5051419;28;20040;-83
2022/04/24 08:32:33;;;;;;;4.18;2.60;;;15.00;90.30;;;;;;5023818;28;20036;-84
2022/04/24 08:34:58;;;;;;;5.82;3.42;;;15.10;90.30;;;;;;5048050;28;20045;-84
2022/04/24 08:37:24;;;;;;;4.85;2.97;;;14.80;89.90;;;;;;5045563;28;20054;-83
2022/04/24 08:39:51;;;;;;;3.88;3.10;;;15.00;90.50;;;;;;5047905;28;20044;-85
2022/04/24 08:42:19;;;;;;;3.80;3.00;;;14.80;89.80;;;;;;5049475;28;20539;-85
2022/04/24 08:44:46;;;;;;;3.40;3.10;;;14.30;90.10;;;;;;5051441;28;20037;-82
2022/04/24 08:47:14;;;;;;;5.35;2.92;;;14.70;91.30;;;;;;5054244;28;20037;-84
2022/04/24 08:49:40;;;;;;;4.22;2.85;;;14.70;90.70;;;;;;5056042;28;20035;-85
2022/04/24 08:52:06;;;;;;;4.40;3.20;;;14.90;90.90;;;;;;5055869;28;20123;-85
2022/04/24 08:54:32;;;;;;;4.57;2.92;;;14.70;89.40;;;;;;5056496;28;20131;-86
2022/04/24 08:56:58;;;;;;;5.35;3.00;;;14.40;89.50;;;;;;5055282;28;20046;-85
2022/04/24 08:59:24;;;;;;;6.07;2.72;;;14.50;90.70;;;;;;5055198;28;20436;-83
2022/04/24 09:01:52;;;;;;;5.68;3.45;;;14.70;91.10;;;;;;5061722;28;20371;-84
2022/04/24 09:04:19;;;;;;;4.03;2.70;;;14.60;90.00;;;;;;5057269;28;20425;-84
2022/04/24 09:06:55;;;;;;;4.18;2.80;;;14.70;91.00;;;;;;5055352;28;20043;-85
2022/04/24 09:09:21;;;;;;;3.95;2.83;;;14.30;89.60;;;;;;5040279;28;20539;-84
2022/04/24 09:11:46;;;;;;;4.05;3.20;;;14.50;88.80;;;;;;5048377;28;20040;-84
2022/04/24 09:14:15;;;;;;;5.38;2.85;;;14.30;89.00;;;;;;5051442;28;20047;-84
2022/04/24 09:16:47;;;;;;;3.45;2.70;;;14.40;90.30;;;;;;5052981;28;20128;-84
2022/04/24 09:19:21;;;;;;;4.68;2.67;;;14.40;90.80;;;;;;5037597;28;20056;-84
2022/04/24 09:21:51;;;;;;;3.55;3.10;;;14.80;89.50;;;;;;5047423;28;20052;-84
2022/04/24 09:24:17;;;;;;;3.83;3.13;;;14.90;90.10;;;;;;5054590;28;20486;-85
2022/04/24 09:26:56;;;;;;;4.78;2.65;;;14.90;89.00;;;;;;5044482;28;20537;-85
2022/04/24 09:29:23;;;;;;;4.82;3.70;;;15.00;90.70;;;;;;5039441;28;20037;-85
2022/04/24 09:31:50;;;;;;;3.28;2.92;;;14.90;88.60;;;;;;5055277;28;20040;-85
2022/04/24 09:34:17;;;;;;;4.43;2.95;;;14.90;87.70;;;;;;5056424;28;20047;-86
2022/04/24 09:36:47;;;;;;;4.88;3.10;;;15.10;86.60;;;;;;5054019;28;20040;-84
2022/04/24 09:39:13;;;;;;;6.57;2.90;;;15.30;90.20;;;;;;5057108;28;20559;-85
2022/04/24 09:41:41;;;;;;;4.28;3.30;;;15.60;90.10;;;;;;5046886;28;20040;-86
2022/04/24 09:44:12;;;;;;;6.32;3.30;;;15.30;85.40;;;;;;5053855;28;20618;-86
2022/04/24 09:46:38;;;;;;;5.60;3.28;;;14.80;85.50;;;;;;5056564;28;20470;-85
2022/04/24 09:49:09;;;;;;;5.63;3.20;;;14.70;86.10;;;;;;5070158;28;20043;-85
2022/04/24 09:51:43;;;;;;;7.45;3.35;;;14.80;86.70;;;;;;5056651;28;20040;-85
2022/04/24 09:54:09;;;;;;;5.68;2.70;;;14.80;85.70;;;;;;5057234;28;20040;-86
2022/04/24 09:56:36;;;;;;;4.70;2.60;;;15.00;85.50;;;;;;5056669;28;20094;-85
2022/04/24 09:59:03;;;;;;;4.53;2.30;;;15.20;89.50;;;;;;5040524;28;20136;-84
2022/04/24 10:01:29;;;;;;;3.85;2.65;;;15.60;87.70;;;;;;5056441;28;20470;-86
2022/04/24 10:03:55;;;;;;;3.08;2.40;;;15.50;83.20;;;;;;5056391;28;20067;-84
2022/04/24 10:06:22;;;;;;;4.30;2.70;;;15.50;87.80;;;;;;5035748;28;20025;-83
2022/04/24 10:08:50;;;;;;;3.95;2.60;;;15.40;82.60;;;;;;5048596;28;20036;-84
2022/04/24 10:11:16;;;;;;;9.15;3.28;;;15.40;84.40;;;;;;5056436;28;20408;-85
2022/04/24 10:13:45;;;;;;;5.35;2.60;;;15.00;81.60;;;;;;5052552;28;20051;-87
2022/04/24 10:16:39;;;;;;;4.05;2.22;;;15.00;83.10;;;;;;5055932;28;20748;-87
2022/04/24 10:19:28;;;;;;;2.78;2.58;;;15.30;86.10;;;;;;5055939;28;20052;-87
2022/04/24 10:22:11;;;;;;;3.92;2.63;;;15.20;83.60;;;;;;5065236;28;20048;-86
2022/04/24 10:24:44;;;;;;;3.90;3.00;;;15.20;82.60;;;;;;5036180;28;20037;-87
2022/04/24 10:27:12;;;;;;;3.10;2.70;;;15.20;83.10;;;;;;5053658;28;20422;-86
2022/04/24 10:29:51;;;;;;;3.92;2.58;;;15.30;81.70;;;;;;5038179;28;20033;-88
2022/04/24 10:32:27;;;;;;;4.22;2.65;;;15.70;83.70;;;;;;5054788;28;20040;-88
2022/04/24 10:34:53;;;;;;;3.22;2.88;;;15.90;83.80;;;;;;5053912;28;20068;-87
2022/04/24 10:37:29;;;;;;;4.05;3.00;;;16.10;83.30;;;;;;5056732;28;20478;-88
2022/04/24 10:39:57;;;;;;;4.03;2.60;;;16.30;83.70;;;;;;5052024;28;20072;-85
2022/04/24 10:42:34;;;;;;;4.93;3.28;;;16.40;83.60;;;;;;5056291;28;20046;-87
2022/04/24 10:45:14;;;;;;;5.30;2.85;;;16.50;80.10;;;;;;5056093;28;20115;-86
2022/04/24 10:48:05;;;;;;;6.55;3.00;;;16.30;80.20;;;;;;5057321;28;20045;-86
2022/04/24 10:50:31;;;;;;;4.57;3.17;;;15.90;79.20;;;;;;5045514;28;20522;-86
2022/04/24 10:52:56;;;;;;;6.40;3.03;;;16.00;81.70;;;;;;5057003;28;20124;-87
2022/04/24 10:55:26;;;;;;;3.22;2.50;;;16.10;82.50;;;;;;5049869;28;20478;-83
2022/04/24 10:58:02;;;;;;;2.53;2.30;;;16.20;80.30;;;;;;5036858;28;20045;-87
2022/04/24 11:00:34;;;;;;;3.53;2.58;;;16.30;78.80;;;;;;5053175;28;20049;-87
2022/04/24 11:03:13;;;;;;;2.72;2.22;;;16.50;78.80;;;;;;5054765;28;20058;-88
2022/04/24 11:05:42;;;;;;;3.42;2.40;;;16.80;77.70;;;;;;5049655;28;20090;-88
2022/04/24 11:08:09;;;;;;;3.30;2.40;;;17.00;80.00;;;;;;5040323;28;20040;-89
2022/04/24 11:10:41;;;;;;;3.00;2.42;;;16.80;77.50;;;;;;5054123;28;20043;-88
2022/04/24 11:13:12;;;;;;;2.80;2.08;;;16.60;76.00;;;;;;5055536;28;20036;-88
2022/04/24 11:15:42;;;;;;;5.10;2.05;;;16.70;74.90;;;;;;5055274;28;20048;-89
2022/04/24 11:18:26;;;;;;;2.40;1.60;;;16.50;74.20;;;;;;5055402;28;20055;-87
2022/04/24 11:21:06;;;;;;;3.25;1.75;;;16.40;72.00;;;;;;5054501;28;20124;-89
2022/04/24 11:23:37;;;;;;;5.35;2.20;;;16.60;73.80;;;;;;5052407;28;20110;-89
2022/04/24 11:26:08;;;;;;;4.75;3.00;;;16.80;74.40;;;;;;5045356;28;20077;-87
2022/04/24 11:28:42;;;;;;;3.47;2.25;;;17.00;76.00;;;;;;5020071;28;20044;-87
2022/04/24 11:31:09;;;;;;;2.50;2.13;;;17.10;76.00;;;;;;5058352;28;20119;-87
2022/04/24 11:33:48;;;;;;;3.40;2.53;;;17.10;74.10;;;;;;5054126;28;20067;-87
2022/04/24 11:36:14;;;;;;;2.63;2.33;;;16.80;72.70;;;;;;5047552;28;20056;-87
2022/04/24 11:38:39;;;;;;;3.00;2.47;;;16.20;73.70;;;;;;5033988;28;20033;-86
2022/04/24 11:41:05;;;;;;;3.03;2.50;;;16.00;74.40;;;;;;5054918;28;20052;-86
2022/04/24 11:43:31;;;;;;;4.45;2.70;;;15.70;75.00;;;;;;5049430;28;20040;-87
2022/04/24 11:51:25;;;;;;;2.78;2.47;;;15.80;77.10;;;;;;5051251;28;20508;-87
2022/04/24 11:53:53;;;;;;;2.28;2.08;;;15.70;74.80;;;;;;5047826;28;20390;-87
2022/04/24 11:56:18;;;;;;;3.15;2.38;;;15.70;76.00;;;;;;5052788;28;20049;-87
2022/04/24 11:58:44;;;;;;;2.97;2.30;;;16.00;75.70;;;;;;5051969;28;20367;-88
2022/04/24 12:01:13;;;;;;;5.38;2.40;;;16.30;76.60;;;;;;5054325;28;20113;-88
2022/04/24 12:03:43;;;;;;;2.50;2.08;;;16.60;75.50;;;;;;5036461;28;20055;-87
2022/04/24 12:06:13;;;;;;;2.92;2.40;;;16.80;73.80;;;;;;5037944;28;20036;-89
2022/04/24 12:08:48;;;;;;;2.72;2.47;;;16.70;73.50;;;;;;5052091;28;20089;-88
2022/04/24 12:11:27;;;;;;;4.70;2.70;;;16.60;74.00;;;;;;5035093;28;20044;-88
2022/04/24 12:14:03;;;;;;;4.03;2.40;;;16.70;74.30;;;;;;5056380;28;20087;-87
2022/04/24 12:16:30;;;;;;;4.13;2.60;;;16.50;72.90;;;;;;5059201;28;20047;-86
2022/04/24 12:18:57;;;;;;;2.60;2.30;;;16.20;72.50;;;;;;5058946;28;20124;-87
2022/04/24 12:21:23;;;;;;;5.35;2.85;;;16.10;74.80;;;;;;5030243;28;20105;-86
2022/04/24 12:23:54;;;;;;;4.65;2.35;;;16.10;74.10;;;;;;5016735;28;20052;-88
2022/04/24 12:26:20;;;;;;;3.92;2.40;;;16.00;74.60;;;;;;5014148;28;20510;-87
2022/04/24 12:28:47;;;;;;;3.67;2.45;;;16.30;74.70;;;;;;5035498;28;20049;-87
2022/04/24 12:31:24;;;;;;;3.72;2.60;;;16.50;73.30;;;;;;5034894;28;20048;-87
2022/04/24 12:33:55;;;;;;;3.50;3.20;;;16.70;74.70;;;;;;5014249;28;20047;-87
2022/04/24 12:36:22;;;;;;;3.90;2.63;;;16.60;73.60;;;;;;5035274;28;20048;-87
2022/04/24 12:38:56;;;;;;;3.20;2.83;;;16.60;73.60;;;;;;5027439;28;20044;-88
2022/04/24 12:41:30;;;;;;;2.78;2.58;;;16.80;75.10;;;;;;5028263;28;20044;-89
2022/04/24 12:44:03;;;;;;;3.28;2.72;;;16.90;74.10;;;;;;5028216;28;20072;-89
2022/04/24 12:46:29;;;;;;;3.25;2.95;;;16.80;73.10;;;;;;5035124;28;20559;-87
2022/04/24 12:48:56;;;;;;;4.10;2.90;;;16.40;73.40;;;;;;5034129;28;20133;-90
2022/04/24 12:51:24;;;;;;;4.47;2.70;;;16.30;74.70;;;;;;5034779;28;20103;-89
2022/04/24 12:53:51;;;;;;;4.25;3.00;;;16.10;74.80;;;;;;5035117;28;20041;-89
2022/04/24 12:56:17;;;;;;;5.07;3.13;;;16.10;75.80;;;;;;5034577;28;20049;-88